Time;durP1;ratioP1;P1;durP2;ratioP2;P2;SDS_P1;SDS_P2;PMS_P1;PMS_P2;Temp;Humidity;BMP_temperature;BMP_pressure;BME280_temperature;BME280_humidity;BME280_pressure;Samples;Min_cycle;Max_cycle;Signal;HPM_P1;HPM_P2
2023/04/02 00:00:17;;;;;;;1.20;1.10;;;;;;;-143.84;76.60;45092.88;5068640;28;20438;-67
2023/04/02 00:03:00;;;;;;;1.00;0.90;;;;;;;-143.84;76.83;45130.94;5068217;28;20445;-67
2023/04/02 00:05:50;;;;;;;1.20;1.10;;;;;;;-143.84;76.74;45125.22;5070040;28;20943;-68
2023/04/02 00:08:37;;;;;;;1.50;1.10;;;;;;;-143.84;76.84;45125.22;5073386;28;20853;-67
2023/04/02 00:11:05;;;;;;;1.30;1.10;;;;;;;-143.84;76.68;45115.72;5073778;28;20494;-67
2023/04/02 00:13:35;;;;;;;3.60;2.03;;;;;;;-143.84;76.86;45110.00;5074137;28;20437;-67
2023/04/02 00:16:05;;;;;;;1.67;1.47;;;;;;;-143.84;76.97;45134.75;5073900;28;20858;-67
2023/04/02 00:18:37;;;;;;;1.23;1.13;;;;;;;-143.84;77.09;45106.19;5073598;28;20436;-67
2023/04/02 00:21:13;;;;;;;1.43;1.33;;;;;;;-143.84;77.07;45117.63;5074014;28;20818;-67
2023/04/02 00:23:42;;;;;;;1.20;1.10;;;;;;;-143.84;77.17;45079.53;5073615;28;20439;-67
2023/04/02 00:26:22;;;;;;;1.47;1.37;;;;;;;-143.84;76.76;45125.22;5073408;28;20472;-67
2023/04/02 00:28:50;;;;;;;1.10;1.00;;;;;;;-143.84;76.35;45115.72;5073421;28;20997;-67
2023/04/02 00:31:19;;;;;;;1.60;1.50;;;;;;;-143.84;76.35;45127.13;5071681;28;20433;-67
2023/04/02 00:33:49;;;;;;;1.40;1.30;;;;;;;-143.84;76.35;45134.75;5073296;28;21184;-67
2023/04/02 00:36:18;;;;;;;1.60;1.50;;;;;;;-143.84;76.26;45127.13;5073387;28;20436;-67
2023/04/02 00:38:47;;;;;;;1.40;1.30;;;;;;;-143.84;76.46;45129.03;5073389;28;20472;-68
2023/04/02 00:41:16;;;;;;;1.50;1.40;;;;;;;-143.84;76.49;45134.75;5073006;28;20498;-67
2023/04/02 00:43:49;;;;;;;2.13;1.30;;;;;;;-143.84;76.27;45125.22;5072209;28;20448;-67
2023/04/02 00:46:22;;;;;;;1.50;1.40;;;;;;;-143.84;76.51;45117.63;5072267;28;20857;-67
2023/04/02 00:48:57;;;;;;;1.40;1.30;;;;;;;-143.84;76.35;45121.44;5072550;28;20495;-67
2023/04/02 00:51:29;;;;;;;1.50;1.40;;;;;;;-143.84;76.79;45136.66;5072549;28;21442;-67
2023/04/02 00:54:00;;;;;;;1.23;1.13;;;;;;;-143.84;76.72;45132.84;5072930;28;20448;-67
2023/04/02 00:56:32;;;;;;;1.43;1.33;;;;;;;-143.84;76.94;45130.94;5073009;28;20527;-67
2023/04/02 00:58:59;;;;;;;1.27;1.17;;;;;;;-143.84;77.00;45123.34;5072960;28;20453;-67
2023/04/02 01:01:33;;;;;;;1.50;1.40;;;;;;;-143.84;77.03;45117.63;5073048;28;20973;-67
2023/04/02 01:04:02;;;;;;;1.10;1.00;;;;;;;-143.84;77.32;45119.53;5073218;28;20443;-67
2023/04/02 01:06:33;;;;;;;2.27;1.27;;;;;;;-143.84;77.43;45121.44;5072651;28;20513;-67
2023/04/02 01:09:19;;;;;;;1.37;1.27;;;;;;;-143.84;77.34;45111.91;5070391;28;20877;-67
2023/04/02 01:12:19;;;;;;;1.70;1.60;;;;;;;-143.84;77.79;45102.38;5071346;28;21001;-68
2023/04/02 01:14:55;;;;;;;1.37;1.27;;;;;;;-143.84;78.12;45117.63;5071617;28;20451;-68
2023/04/02 01:17:38;;;;;;;2.37;1.40;;;;;;;-143.84;78.05;45106.19;5072085;28;20923;-67
2023/04/02 01:20:46;;;;;;;1.80;1.70;;;;;;;-143.84;78.18;45108.09;5072662;28;20444;-67
2023/04/02 01:23:18;;;;;;;1.30;1.20;;;;;;;-143.84;78.11;45092.88;5072289;28;20999;-67
2023/04/02 01:25:53;;;;;;;1.50;1.00;;;;;;;-143.84;78.28;45125.22;5072490;28;20442;-67
2023/04/02 01:28:26;;;;;;;1.40;1.30;;;;;;;-143.84;78.03;45092.88;5072280;28;20552;-67
2023/04/02 01:30:57;;;;;;;1.47;1.37;;;;;;;-143.84;78.16;45092.88;5072287;28;20468;-67
2023/04/02 01:33:28;;;;;;;1.60;1.50;;;;;;;-143.84;78.05;45094.78;5072383;28;20433;-67
2023/04/02 01:36:01;;;;;;;1.63;1.53;;;;;;;-143.84;78.01;45106.19;5072733;28;20432;-67
2023/04/02 01:38:35;;;;;;;1.80;1.70;;;;;;;-143.84;78.44;45079.53;5072053;28;21014;-67
2023/04/02 01:41:09;;;;;;;1.80;1.70;;;;;;;-143.84;78.48;45085.25;5072220;28;20439;-67
2023/04/02 01:43:42;;;;;;;4.80;2.00;;;;;;;-143.84;78.34;45100.47;5072220;28;21012;-67
2023/04/02 01:46:26;;;;;;;2.07;1.97;;;;;;;-143.84;78.78;45108.09;5072404;28;20444;-67
2023/04/02 01:48:54;;;;;;;1.83;1.73;;;;;;;-143.84;78.73;45104.28;5071368;28;20541;-67
2023/04/02 01:51:28;;;;;;;4.80;3.40;;;;;;;-143.84;78.84;45090.97;5070927;28;20432;-67
2023/04/02 01:53:56;;;;;;;4.50;4.00;;;;;;;-143.84;78.91;45077.63;5072340;28;20497;-67
2023/04/02 01:56:23;;;;;;;5.90;4.60;;;;;;;-143.84;78.98;45111.91;5071883;28;20433;-67
2023/04/02 01:58:50;;;;;;;3.87;3.57;;;;;;;-143.84;79.19;45129.03;5071675;28;21011;-67
2023/04/02 02:01:21;;;;;;;5.97;4.37;;;;;;;-143.84;79.45;45062.41;5071501;28;20499;-67
2023/04/02 02:03:50;;;;;;;7.00;4.57;;;;;;;-143.84;78.89;45081.44;5071553;28;20447;-67
2023/04/02 02:06:19;;;;;;;4.00;3.67;;;;;;;-143.84;79.07;45102.38;5071821;28;20436;-67
2023/04/02 02:08:49;;;;;;;3.63;3.30;;;;;;;-143.84;78.61;45087.16;5071344;28;20584;-67
2023/04/02 02:11:18;;;;;;;3.90;3.60;;;;;;;-143.84;78.49;45106.19;5071526;28;20992;-67
2023/04/02 02:13:48;;;;;;;3.83;3.53;;;;;;;-143.84;78.40;45092.88;5071621;28;20440;-67
2023/04/02 02:16:18;;;;;;;4.47;4.07;;;;;;;-143.84;78.65;45098.56;5071498;28;20449;-67
2023/04/02 02:18:49;;;;;;;3.47;3.17;;;;;;;-143.84;79.01;45106.19;5071532;28;20442;-67
2023/04/02 02:21:28;;;;;;;3.80;3.50;;;;;;;-143.84;78.71;45071.91;5071365;28;20433;-67
2023/04/02 02:23:56;;;;;;;3.50;2.83;;;;;;;-143.84;78.79;45096.66;5071383;28;20445;-67
2023/04/02 02:26:26;;;;;;;3.27;3.03;;;;;;;-143.84;78.95;45094.78;5071704;28;20433;-67
2023/04/02 02:28:56;;;;;;;3.50;3.30;;;;;;;-143.84;78.57;45098.56;5070124;28;20537;-67
2023/04/02 02:31:29;;;;;;;9.50;4.43;;;;;;;-143.84;78.76;45134.75;5071134;28;20809;-67
2023/04/02 02:34:03;;;;;;;2.87;2.67;;;;;;;-143.84;78.61;45102.38;5071050;28;20982;-67
2023/04/02 02:36:39;;;;;;;5.30;4.80;;;;;;;-143.84;78.40;45130.94;5070932;28;20487;-67
2023/04/02 02:39:15;;;;;;;3.80;3.40;;;;;;;-143.84;77.97;45108.09;5071115;28;20535;-67
2023/04/02 02:41:45;;;;;;;3.87;3.57;;;;;;;-143.84;78.03;45111.91;5070847;28;20447;-67
2023/04/02 02:44:17;;;;;;;4.13;3.83;;;;;;;-143.84;77.83;45073.81;5070350;28;20462;-67
2023/04/02 02:46:48;;;;;;;3.77;3.47;;;;;;;-143.84;77.69;45123.34;5069800;28;20497;-67
2023/04/02 02:49:18;;;;;;;5.33;3.27;;;;;;;-143.84;77.33;45098.56;5069868;28;20491;-67
2023/04/02 02:51:51;;;;;;;5.77;5.17;;;;;;;-143.84;77.39;45129.03;5070563;28;20529;-67
2023/04/02 02:54:19;;;;;;;4.13;3.73;;;;;;;-143.84;77.27;45130.94;5070905;28;20517;-67
2023/04/02 02:56:50;;;;;;;6.20;4.70;;;;;;;-143.84;77.22;45151.91;5070617;28;21033;-68
2023/04/02 02:59:20;;;;;;;7.53;5.10;;;;;;;-143.84;77.50;45110.00;5070728;28;20456;-67
2023/04/02 03:01:48;;;;;;;9.03;4.70;;;;;;;-143.84;77.66;45132.84;5070231;28;20441;-68
2023/04/02 03:04:21;;;;;;;6.60;5.60;;;;;;;-143.84;77.69;45150.00;5069319;28;20472;-68
2023/04/02 03:06:51;;;;;;;6.93;6.23;;;;;;;-143.84;77.69;45117.63;5069268;28;20440;-67
2023/04/02 03:09:29;;;;;;;7.87;5.80;;;;;;;-143.84;77.80;45115.72;5069052;28;20503;-67
2023/04/02 03:12:03;;;;;;;5.90;5.40;;;;;;;-143.84;77.95;45132.84;5069948;28;20476;-67
2023/04/02 03:14:34;;;;;;;6.40;5.57;;;;;;;-143.84;77.90;45127.13;5070561;28;20498;-67
2023/04/02 03:17:09;;;;;;;5.10;4.57;;;;;;;-143.84;78.24;45087.16;5070442;28;21021;-67
2023/04/02 03:19:42;;;;;;;4.83;4.43;;;;;;;-143.84;78.37;45102.38;5068257;28;20539;-67
2023/04/02 03:22:16;;;;;;;4.73;4.33;;;;;;;-143.84;78.07;45087.16;5069548;28;20506;-66
2023/04/02 03:24:52;;;;;;;5.30;4.30;;;;;;;-143.84;78.47;45110.00;5069863;28;20577;-67
2023/04/02 03:27:24;;;;;;;4.53;4.23;;;;;;;-143.84;78.31;45077.63;5070406;28;20910;-67
2023/04/02 03:30:16;;;;;;;4.30;4.00;;;;;;;-143.84;78.28;45075.72;5070158;28;20561;-67
2023/04/02 03:32:45;;;;;;;5.00;3.70;;;;;;;-143.84;78.09;45085.25;5070372;28;20437;-67
2023/04/02 03:35:21;;;;;;;3.33;3.13;;;;;;;-143.84;77.82;45110.00;5070644;28;20444;-67
2023/04/02 03:37:55;;;;;;;3.70;3.40;;;;;;;-143.84;77.83;45140.47;5070375;28;20464;-67
2023/04/02 03:40:28;;;;;;;3.87;3.57;;;;;;;-143.84;78.10;45089.06;5070206;28;20471;-67
2023/04/02 03:43:03;;;;;;;5.27;4.60;;;;;;;-143.84;77.82;45098.56;5070249;28;20437;-67
2023/04/02 03:45:36;;;;;;;3.60;3.30;;;;;;;-143.84;77.60;45098.56;5069773;28;20575;-67
2023/04/02 03:48:08;;;;;;;4.33;4.03;;;;;;;-143.84;77.17;45119.53;5069509;28;20860;-67
2023/04/02 03:50:44;;;;;;;3.67;3.47;;;;;;;-143.84;77.10;45106.19;5067542;28;21119;-68
2023/04/02 03:53:13;;;;;;;5.73;3.90;;;;;;;-143.84;77.01;45119.53;5068025;28;20471;-67
2023/04/02 03:55:41;;;;;;;7.43;4.00;;;;;;;-143.84;77.05;45146.19;5068995;28;20442;-67
2023/04/02 03:58:16;;;;;;;5.40;4.90;;;;;;;-143.84;77.06;45121.44;5068822;28;20437;-67
2023/04/02 04:00:48;;;;;;;4.97;4.57;;;;;;;-143.84;76.63;45142.38;5069071;28;20447;-66
2023/04/02 04:03:19;;;;;;;6.53;5.10;;;;;;;-143.84;76.77;45138.56;5069653;28;20444;-68
2023/04/02 04:05:50;;;;;;;8.40;5.43;;;;;;;-143.84;76.85;45129.03;5069677;28;20494;-67
2023/04/02 04:08:24;;;;;;;7.10;5.23;;;;;;;-143.84;77.07;45115.72;5070210;28;20833;-67
2023/04/02 04:10:53;;;;;;;6.83;4.40;;;;;;;-143.84;77.04;45130.94;5069386;28;20488;-67
2023/04/02 04:13:29;;;;;;;6.50;5.90;;;;;;;-143.84;77.00;45155.69;5070186;28;20439;-67
2023/04/02 04:16:00;;;;;;;5.23;4.83;;;;;;;-143.84;76.90;45123.34;5068539;28;20451;-67
2023/04/02 04:18:36;;;;;;;6.17;5.57;;;;;;;-143.84;76.80;45104.28;5067271;28;20444;-67
2023/04/02 04:21:12;;;;;;;8.70;7.80;;;;;;;-143.84;76.69;45096.66;5067719;28;20452;-67
2023/04/02 04:23:49;;;;;;;7.17;5.10;;;;;;;-143.84;76.80;45106.19;5069098;28;20466;-67
2023/04/02 04:26:23;;;;;;;5.40;4.30;;;;;;;-143.84;76.63;45125.22;5068107;28;20969;-67
2023/04/02 04:29:04;;;;;;;5.00;4.47;;;;;;;-143.84;76.65;45132.84;5068515;28;20428;-67
2023/04/02 04:31:39;;;;;;;3.80;3.50;;;;;;;-143.84;76.59;45151.91;5069494;28;20821;-68
2023/04/02 04:34:11;;;;;;;4.83;3.57;;;;;;;-143.84;76.65;45113.81;5069367;28;20519;-67
2023/04/02 04:36:52;;;;;;;6.50;4.50;;;;;;;-143.84;76.29;45132.84;5069192;28;20538;-67
2023/04/02 04:39:30;;;;;;;6.13;5.53;;;;;;;-143.84;76.42;45111.91;5068847;28;20528;-67
2023/04/02 04:42:01;;;;;;;6.00;5.40;;;;;;;-143.84;76.31;45092.88;5069094;28;20474;-67
2023/04/02 04:44:40;;;;;;;9.50;5.43;;;;;;;-143.84;76.04;45123.34;5067990;28;20439;-67
2023/04/02 04:47:11;;;;;;;9.70;5.90;;;;;;;-143.84;76.15;45119.53;5068276;28;20448;-67
2023/04/02 04:49:43;;;;;;;7.17;5.93;;;;;;;-143.84;75.63;45125.22;5067711;28;20476;-68
2023/04/02 04:52:17;;;;;;;9.53;7.27;;;;;;;-143.84;75.85;45134.75;5071102;28;20946;-68
2023/04/02 04:54:47;;;;;;;9.83;7.20;;;;;;;-143.84;74.50;45104.28;5071361;28;20447;-67
2023/04/02 04:57:27;;;;;;;31.07;8.33;;;;;;;-143.84;73.11;45142.38;5073161;28;20919;-67
2023/04/02 04:59:58;;;;;;;11.20;8.47;;;;;;;-143.84;72.06;45153.81;5073155;28;20446;-67
2023/04/02 05:02:30;;;;;;;7.60;6.87;;;;;;;-143.84;71.16;45117.63;5073153;28;20437;-67
2023/04/02 05:04:57;;;;;;;7.87;6.23;;;;;;;-143.84;68.52;45130.94;5072712;28;20933;-67
2023/04/02 05:07:29;;;;;;;6.60;6.00;;;;;;;-143.84;66.35;45110.00;5072548;28;20467;-67
2023/04/02 05:10:04;;;;;;;7.90;7.10;;;;;;;-143.84;63.97;45127.13;5072274;28;21070;-67
2023/04/02 05:12:37;;;;;;;7.37;6.60;;;;;;;-143.84;62.49;45117.63;5072636;28;20451;-67
2023/04/02 05:15:11;;;;;;;13.67;7.60;;;;;;;-143.84;61.66;45140.47;5072699;28;20482;-67
2023/04/02 05:17:46;;;;;;;7.20;5.70;;;;;;;-143.84;60.46;45129.03;5072296;28;20440;-67
2023/04/02 05:20:21;;;;;;;6.43;5.80;;;;;;;-143.84;58.98;45106.19;5072771;28;21011;-67
2023/04/02 05:22:54;;;;;;;5.70;4.40;;;;;;;-143.84;57.56;45119.53;5072744;28;20447;-67
2023/04/02 05:25:25;;;;;;;6.63;4.80;;;;;;;-143.84;56.63;45123.34;5072579;28;20975;-67
2023/04/02 05:27:57;;;;;;;8.57;4.67;;;;;;;-143.84;56.47;45111.91;5070978;28;20455;-67
2023/04/02 05:30:45;;;;;;;3.83;3.53;;;;;;;-143.84;55.50;45127.13;5070878;28;20488;-67
2023/04/02 05:33:23;;;;;;;8.07;5.93;;;;;;;-143.84;54.89;45138.56;5071423;28;20532;-67
2023/04/02 05:35:55;;;;;;;6.60;4.40;;;;;;;-143.84;54.26;45110.00;5071719;28;20434;-67
2023/04/02 05:38:26;;;;;;;9.40;5.17;;;;;;;-143.84;54.44;45113.81;5072237;28;20441;-67
2023/04/02 05:41:02;;;;;;;2.60;2.50;;;;;;;-143.84;53.81;45117.63;5071552;28;21087;-67
2023/04/02 05:43:33;;;;;;;3.60;3.30;;;;;;;-143.84;53.42;45110.00;5071548;28;21340;-67
2023/04/02 05:46:06;;;;;;;4.77;3.33;;;;;;;-143.84;52.39;45096.66;5071822;28;20433;-66
2023/04/02 05:48:39;;;;;;;5.40;3.77;;;;;;;-143.84;51.06;45110.00;5070449;28;20450;-69
2023/04/02 05:51:12;;;;;;;5.73;3.07;;;;;;;-143.84;51.45;45090.97;5071653;28;20473;-67
2023/04/02 05:53:45;;;;;;;4.13;3.30;;;;;;;-143.84;51.15;45132.84;5072214;28;20457;-67
2023/04/02 05:56:19;;;;;;;3.07;2.87;;;;;;;-143.84;51.20;45129.03;5072141;28;20494;-67
2023/04/02 05:58:51;;;;;;;4.10;3.70;;;;;;;-143.84;50.43;45115.72;5071637;28;20961;-67
2023/04/02 06:01:37;;;;;;;5.53;4.07;;;;;;;-143.84;50.36;45106.19;5072074;28;20553;-67
2023/04/02 06:04:15;;;;;;;3.43;3.17;;;;;;;-143.84;50.20;45127.13;5071732;28;20453;-68
2023/04/02 06:06:51;;;;;;;2.70;2.50;;;;;;;-143.84;50.05;45132.84;5072338;28;20941;-68
2023/04/02 06:09:25;;;;;;;5.67;3.10;;;;;;;-143.84;51.15;45090.97;5071539;28;20510;-68
2023/04/02 06:11:59;;;;;;;3.67;2.90;;;;;;;-143.84;51.39;45094.78;5071695;28;20493;-68
2023/04/02 06:14:26;;;;;;;3.00;2.10;;;;;;;-143.84;50.29;45087.16;5072014;28;20943;-68
2023/04/02 06:16:54;;;;;;;2.33;2.13;;;;;;;-143.84;50.42;45094.78;5071919;28;20445;-67
2023/04/02 06:19:27;;;;;;;5.00;2.40;;;;;;;-143.84;50.85;45111.91;5071748;28;20442;-68
2023/04/02 06:22:00;;;;;;;2.20;1.93;;;;;;;-143.84;50.92;45098.56;5071457;28;20435;-67
2023/04/02 06:24:29;;;;;;;3.10;2.57;;;;;;;-143.84;51.44;45113.81;5071202;28;20445;-68
2023/04/02 06:27:04;;;;;;;4.13;2.30;;;;;;;-143.84;51.41;45100.47;5071411;28;20444;-69
2023/04/02 06:29:38;;;;;;;2.70;2.50;;;;;;;-143.84;50.90;45125.22;5071871;28;20950;-68
2023/04/02 06:32:07;;;;;;;3.43;2.83;;;;;;;-143.84;51.80;45104.28;5071506;28;20421;-67
2023/04/02 06:34:38;;;;;;;2.97;2.63;;;;;;;-143.84;51.41;45100.47;5071570;28;20461;-67
2023/04/02 06:37:16;;;;;;;4.20;2.83;;;;;;;-143.84;50.88;45104.28;5071577;28;20420;-67
2023/04/02 06:39:43;;;;;;;2.00;1.80;;;;;;;-143.84;50.46;45117.63;5071227;28;20457;-67
2023/04/02 06:42:14;;;;;;;3.80;1.77;;;;;;;-143.84;50.28;45077.63;5070878;28;20508;-67
2023/04/02 06:44:41;;;;;;;5.60;2.90;;;;;;;-143.84;50.70;45121.44;5071266;28;20952;-67
2023/04/02 06:47:22;;;;;;;3.13;2.13;;;;;;;-143.84;51.21;45136.66;5070901;28;20496;-67
2023/04/02 06:49:57;;;;;;;5.73;3.07;;;;;;;-143.84;51.38;45123.34;5071497;28;20442;-67
2023/04/02 06:52:28;;;;;;;2.33;2.00;;;;;;;-143.84;50.56;45098.56;5071309;28;20453;-67
2023/04/02 06:54:56;;;;;;;3.40;2.40;;;;;;;-143.84;51.51;45104.28;5070955;28;20433;-67
2023/04/02 06:57:24;;;;;;;4.07;1.90;;;;;;;-143.84;51.56;45100.47;5070882;28;20521;-68
2023/04/02 06:59:52;;;;;;;2.57;2.37;;;;;;;-143.84;51.55;45102.38;5071225;28;20443;-68
2023/04/02 07:02:30;;;;;;;3.23;1.80;;;;;;;-143.84;50.92;45090.97;5071445;28;20491;-67
2023/04/02 07:05:02;;;;;;;5.53;1.53;;;;;;;-143.84;49.57;45111.91;5070205;28;20430;-68
2023/04/02 07:07:29;;;;;;;1.90;1.77;;;;;;;-143.84;49.71;45117.63;5069776;28;20439;-68
2023/04/02 07:09:57;;;;;;;2.00;1.83;;;;;;;-143.84;48.91;45117.63;5068645;28;20455;-68
2023/04/02 07:12:26;;;;;;;2.17;1.90;;;;;;;-143.84;49.10;45110.00;5068807;28;20848;-68
2023/04/02 07:14:53;;;;;;;1.77;1.63;;;;;;;-143.84;49.19;45108.09;5068758;28;20448;-68
2023/04/02 07:17:21;;;;;;;3.10;1.47;;;;;;;-143.84;48.36;45089.06;5070467;28;20435;-68
2023/04/02 07:19:49;;;;;;;4.33;1.40;;;;;;;-143.84;48.89;45121.44;5069077;28;20444;-70
2023/04/02 07:22:17;;;;;;;4.27;1.67;;;;;;;-143.84;49.57;45115.72;5068818;28;20449;-71
2023/04/02 07:24:45;;;;;;;1.67;1.50;;;;;;;-143.84;49.93;45121.44;5068912;28;20532;-71
2023/04/02 07:27:12;;;;;;;1.60;1.50;;;;;;;-143.84;49.65;45119.53;5068930;28;20497;-71
2023/04/02 07:29:42;;;;;;;1.70;1.50;;;;;;;-143.84;49.45;45102.38;5068778;28;20451;-71
2023/04/02 07:32:10;;;;;;;1.83;1.63;;;;;;;-143.84;49.82;45108.09;5068077;28;20594;-70
2023/04/02 07:34:38;;;;;;;3.20;1.70;;;;;;;-143.84;49.51;45083.34;5067480;28;20441;-71
2023/04/02 07:37:05;;;;;;;1.70;1.60;;;;;;;-143.84;50.25;45130.94;5067441;28;20452;-70
2023/04/02 07:39:33;;;;;;;1.73;1.63;;;;;;;-143.84;49.42;45083.34;5066631;28;20457;-70
2023/04/02 07:42:02;;;;;;;1.53;1.43;;;;;;;-143.84;49.62;45106.19;5066769;28;20441;-70
2023/04/02 07:44:29;;;;;;;1.63;1.53;;;;;;;-143.84;49.51;45104.28;5066659;28;20504;-71
2023/04/02 07:46:58;;;;;;;2.30;1.60;;;;;;;-143.84;49.75;45110.00;5067959;28;20448;-71
2023/04/02 07:49:25;;;;;;;1.87;1.40;;;;;;;-143.84;49.49;45111.91;5068239;28;20446;-70
2023/04/02 07:51:53;;;;;;;1.90;1.80;;;;;;;-143.84;49.73;45113.81;5067192;28;20471;-70
2023/04/02 07:54:20;;;;;;;2.10;2.00;;;;;;;-143.84;49.82;45111.91;5067857;28;20450;-70
2023/04/02 07:56:47;;;;;;;2.73;1.80;;;;;;;-143.84;49.19;45110.00;5067826;28;20502;-70
2023/04/02 07:59:14;;;;;;;2.57;2.27;;;;;;;-143.84;49.88;45102.38;5067812;28;20444;-70
2023/04/02 08:01:41;;;;;;;2.50;2.20;;;;;;;-143.84;48.77;45083.34;5068026;28;20485;-70
2023/04/02 08:04:18;;;;;;;6.60;3.07;;;;;;;-143.84;49.27;45108.09;5068347;28;20447;-70
2023/04/02 08:06:46;;;;;;;6.00;2.40;;;;;;;-143.84;48.51;45098.56;5067931;28;20489;-70
2023/04/02 08:09:13;;;;;;;2.97;2.50;;;;;;;-143.84;48.92;45087.16;5066402;28;20455;-71
2023/04/02 08:11:41;;;;;;;3.83;2.23;;;;;;;-143.84;50.37;45123.34;5066298;28;20858;-71
2023/04/02 08:14:08;;;;;;;5.03;2.50;;;;;;;-143.84;48.96;45087.16;5067034;28;20972;-71
2023/04/02 08:16:49;;;;;;;4.90;2.20;;;;;;;-143.84;48.41;45106.19;5067136;28;20444;-71
2023/04/02 08:19:19;;;;;;;2.33;1.70;;;;;;;-143.84;49.37;45123.34;5067252;28;20835;-71
2023/04/02 08:21:49;;;;;;;8.60;2.53;;;;;;;-143.84;49.96;45089.06;5067443;28;20444;-71
2023/04/02 08:24:17;;;;;;;2.40;2.20;;;;;;;-143.84;49.47;45104.28;5063818;28;20546;-71
2023/04/02 08:26:45;;;;;;;6.00;2.70;;;;;;;-143.84;49.70;45110.00;5053635;28;21064;-70
2023/04/02 08:29:12;;;;;;;2.70;2.50;;;;;;;-143.84;49.68;45098.56;5052159;28;20501;-70
2023/04/02 08:31:39;;;;;;;3.57;2.13;;;;;;;-143.84;49.37;45098.56;5051293;28;20474;-70
2023/04/02 08:34:06;;;;;;;4.00;2.10;;;;;;;-143.84;49.93;45098.56;5051657;28;20441;-71
2023/04/02 08:36:37;;;;;;;2.90;2.70;;;;;;;-143.84;50.12;45110.00;5051727;28;20437;-71
2023/04/02 08:39:05;;;;;;;4.33;2.83;;;;;;;-143.84;48.67;45083.34;5051749;28;20529;-70
2023/04/02 08:41:37;;;;;;;2.07;1.90;;;;;;;-143.84;47.46;45119.53;5051576;28;20441;-70
2023/04/02 08:44:20;;;;;;;5.80;1.77;;;;;;;-143.84;47.90;45087.16;5049031;28;21120;-71
2023/04/02 08:46:52;;;;;;;2.53;1.80;;;;;;;-143.84;46.01;45081.44;5048624;28;20499;-71
2023/04/02 08:49:25;;;;;;;1.80;1.70;;;;;;;-143.84;46.83;45085.25;5068211;28;20528;-71
2023/04/02 08:51:54;;;;;;;1.67;1.57;;;;;;;-143.84;47.01;45113.81;5069514;28;20491;-71
2023/04/02 08:54:25;;;;;;;1.80;1.70;;;;;;;-143.84;47.34;45070.00;5069724;28;20441;-71
2023/04/02 08:56:58;;;;;;;4.03;2.00;;;;;;;-143.84;46.78;45083.34;5070422;28;20486;-71
2023/04/02 08:59:32;;;;;;;2.27;1.83;;;;;;;-143.84;46.61;45079.53;5070925;28;20445;-71
2023/04/02 09:02:14;;;;;;;2.70;1.77;;;;;;;-143.84;46.72;45087.16;5071285;28;20585;-71
2023/04/02 09:04:41;;;;;;;4.30;2.10;;;;;;;-143.84;46.95;45081.44;5071311;28;20437;-70
2023/04/02 09:07:13;;;;;;;5.57;2.27;;;;;;;-143.84;47.88;45092.88;5065429;28;20448;-71
2023/04/02 09:09:40;;;;;;;2.03;1.93;;;;;;;-143.84;47.44;45092.88;5059244;28;20449;-70
2023/04/02 09:12:16;;;;;;;7.30;1.80;;;;;;;-143.84;46.89;45081.44;5069382;28;20497;-70
2023/04/02 09:14:45;;;;;;;3.10;1.50;;;;;;;-143.84;47.34;45090.97;5060427;28;20480;-71
2023/04/02 09:17:18;;;;;;;1.50;1.40;;;;;;;-143.84;48.09;45087.16;5063948;28;20877;-71
2023/04/02 09:19:53;;;;;;;2.63;1.90;;;;;;;-143.84;48.16;45089.06;5061155;28;20513;-71
2023/04/02 09:22:24;;;;;;;2.10;1.33;;;;;;;-143.84;47.71;45096.66;5059665;28;20459;-71
2023/04/02 09:24:52;;;;;;;1.67;1.57;;;;;;;-143.84;47.92;45090.97;5071389;28;20445;-71
2023/04/02 09:27:21;;;;;;;4.20;2.10;;;;;;;-143.84;48.94;45096.66;5071289;28;20447;-72
2023/04/02 09:29:51;;;;;;;2.20;2.00;;;;;;;-143.84;49.63;45102.38;5071291;28;20447;-73
2023/04/02 09:32:37;;;;;;;3.07;1.70;;;;;;;-143.84;49.27;45104.28;5071160;28;20627;-72
2023/04/02 09:35:11;;;;;;;2.27;1.57;;;;;;;-143.84;50.37;45117.63;5070702;28;20447;-72
2023/04/02 09:37:40;;;;;;;3.00;1.73;;;;;;;-143.84;51.25;45106.19;5070190;28;20456;-72
2023/04/02 09:40:31;;;;;;;2.20;2.00;;;;;;;-143.84;51.56;45077.63;5064668;28;20519;-71
2023/04/02 09:43:17;;;;;;;1.77;1.53;;;;;;;-143.84;51.82;45090.97;5060249;28;20921;-72
2023/04/02 09:45:54;;;;;;;4.17;2.03;;;;;;;-143.84;52.81;45081.44;5064849;28;20436;-72
2023/04/02 09:48:29;;;;;;;3.20;2.50;;;;;;;-143.84;52.24;45081.44;5069974;28;20513;-72
2023/04/02 09:51:14;;;;;;;1.97;1.87;;;;;;;-143.84;50.92;45111.91;5069586;28;20570;-72
2023/04/02 09:53:45;;;;;;;2.90;1.60;;;;;;;-143.84;50.17;45083.34;5068348;28;20429;-71
2023/04/02 09:56:16;;;;;;;2.40;2.20;;;;;;;-143.84;51.10;45100.47;5068970;28;20458;-72
2023/04/02 09:58:44;;;;;;;2.37;2.17;;;;;;;-143.84;52.13;45111.91;5068676;28;20468;-72
2023/04/02 10:01:30;;;;;;;3.43;2.03;;;;;;;-143.84;51.39;45089.06;5068431;28;20444;-71
2023/04/02 10:03:58;;;;;;;2.07;1.90;;;;;;;-143.84;51.21;45070.00;5062219;28;20994;-72
2023/04/02 10:06:27;;;;;;;7.80;2.20;;;;;;;-143.84;51.09;45110.00;5063079;28;20466;-72
2023/04/02 10:08:56;;;;;;;1.80;1.53;;;;;;;-143.84;52.24;45090.97;5068599;28;20437;-72
2023/04/02 10:11:28;;;;;;;1.93;1.83;;;;;;;-143.84;51.62;45077.63;5068741;28;20488;-71
2023/04/02 10:13:59;;;;;;;2.90;1.80;;;;;;;-143.84;49.43;45073.81;5069642;28;20797;-70
2023/04/02 10:16:31;;;;;;;1.90;1.70;;;;;;;-143.84;48.09;45083.34;5068356;28;20447;-72
2023/04/02 10:19:03;;;;;;;4.13;2.00;;;;;;;-143.84;47.81;45096.66;5070391;28;20433;-71
2023/04/02 10:21:36;;;;;;;2.20;2.00;;;;;;;-143.84;48.62;45064.31;5067635;28;20490;-71
2023/04/02 10:24:12;;;;;;;4.53;2.20;;;;;;;-143.84;48.75;45094.78;5055120;28;20477;-71
2023/04/02 10:26:52;;;;;;;1.77;1.50;;;;;;;-143.84;48.80;45066.22;5061457;28;20441;-71
2023/04/02 10:29:48;;;;;;;1.87;1.73;;;;;;;-143.84;49.04;45087.16;5049565;28;20442;-70
2023/04/02 10:32:20;;;;;;;4.70;2.03;;;;;;;-143.84;48.34;45083.34;5047843;28;20501;-71
2023/04/02 10:34:56;;;;;;;2.20;1.87;;;;;;;-143.84;49.52;45119.53;5049887;28;20455;-73
2023/04/02 10:37:55;;;;;;;2.73;2.07;;;;;;;-143.84;49.80;45113.81;5050126;28;20432;-72
2023/04/02 10:40:29;;;;;;;1.93;1.83;;;;;;;-143.84;50.42;45110.00;5049493;28;20448;-71
2023/04/02 10:43:13;;;;;;;1.90;1.80;;;;;;;-143.84;51.10;45110.00;5061546;28;20552;-71
2023/04/02 10:45:46;;;;;;;2.10;2.00;;;;;;;-143.84;50.19;45087.16;5051352;28;20433;-72
2023/04/02 10:48:23;;;;;;;2.90;2.40;;;;;;;-143.84;50.45;45111.91;5048756;28;20818;-72
2023/04/02 10:50:59;;;;;;;2.20;2.00;;;;;;;-143.84;50.17;45106.19;5055389;28;20442;-74
2023/04/02 10:53:33;;;;;;;1.90;1.80;;;;;;;-143.84;50.71;45079.53;5068659;28;20506;-74
2023/04/02 10:56:07;;;;;;;3.93;1.67;;;;;;;-143.84;50.27;45087.16;5069395;28;20447;-73
2023/04/02 10:58:40;;;;;;;1.73;1.60;;;;;;;-143.84;51.25;45096.66;5069993;28;20523;-73
2023/04/02 11:01:13;;;;;;;4.67;2.50;;;;;;;-143.84;51.13;45127.13;5069853;28;20435;-72
2023/04/02 11:03:47;;;;;;;1.80;1.70;;;;;;;-143.84;50.83;45085.25;5068201;28;20453;-74
2023/04/02 11:06:20;;;;;;;3.00;1.80;;;;;;;-143.84;48.54;45087.16;5067499;28;20949;-77
2023/04/02 11:08:48;;;;;;;1.90;1.80;;;;;;;-143.84;47.86;45090.97;5069731;28;20948;-78
2023/04/02 11:11:21;;;;;;;1.60;1.50;;;;;;;-143.84;47.97;45083.34;5068401;28;20563;-78
2023/04/02 11:13:55;;;;;;;1.73;1.60;;;;;;;-143.84;47.88;45090.97;5069537;28;20854;-78
2023/04/02 11:16:27;;;;;;;3.33;1.70;;;;;;;-143.84;48.17;45089.06;5070680;28;20894;-79
2023/04/02 11:19:25;;;;;;;1.87;1.40;;;;;;;-143.84;47.61;45094.78;5070229;28;20508;-76
2023/04/02 11:21:55;;;;;;;2.17;2.07;;;;;;;-143.84;48.42;45089.06;5068266;28;20889;-78
2023/04/02 11:24:35;;;;;;;2.67;2.37;;;;;;;-143.84;48.26;45100.47;5055178;28;20426;-77
2023/04/02 11:27:20;;;;;;;2.07;1.70;;;;;;;-143.84;48.51;45050.97;5059081;28;20445;-74
2023/04/02 11:29:51;;;;;;;4.53;1.53;;;;;;;-143.84;48.33;45090.97;5058023;28;20460;-71
2023/04/02 11:32:34;;;;;;;1.40;1.30;;;;;;;-143.84;47.60;45087.16;5048941;28;20491;-75
2023/04/02 11:35:31;;;;;;;1.93;1.20;;;;;;;-143.84;46.92;45062.41;5050151;28;20548;-71
2023/04/02 11:38:02;;;;;;;1.40;1.30;;;;;;;-143.84;47.23;45098.56;5052852;28;20449;-71
2023/04/02 11:40:51;;;;;;;1.67;1.50;;;;;;;-143.84;46.82;45104.28;5070307;28;20429;-71
2023/04/02 11:43:49;;;;;;;1.80;1.40;;;;;;;-143.84;46.70;45090.97;5065594;28;20445;-72